TTPP/POS METAR and TAF weather

Enter ICAO airport designator
Station Type Date Time Source
TTPP METAR 2020/09/20 01:00 UTC NOAA

TTPP 200100Z 00000KT 9999 FEW016 27/25 Q1011 NOSIG


Station Type Date Time Source
TTPP Decoded METAR 2020/09/20 01:00 UTC NOAA

Piarco International Airport, Trinidad, Trinidad and Tobago (TTPP) 10-37N 061-21W 15M
Sep 19, 2020 - 09:00 PM EDT / 2020.09.20 0100 UTC
Wind: Calm:0
Visibility: greater than 7 mile(s):0
Sky conditions: mostly clear
Temperature: 80 F (27 C)
Dew Point: 77 F (25 C)
Relative Humidity: 88%
Pressure (altimeter): 29.85 in. Hg (1011 hPa)
ob: TTPP 200100Z 00000KT 9999 FEW016 27/25 Q1011 NOSIG
cycle: 1

Station Type Date Time Source
TTPP TAF 2020/09/19 18:28 UTC NOAA

TAF TTPP 191600Z 1918/2018 12008KT 9999 SCT016 SCT035
BECMG 2000/2002 00000KT FEW016
BECMG 2012/2014 12010KT

Example: see airport list